createdAt,value
2019-05-16T00:01:05.970Z,9.20
2019-05-16T00:03:33.827Z,9.20
2019-05-16T00:06:01.487Z,9.20
2019-05-16T00:08:29.458Z,9.10
2019-05-16T00:10:58.102Z,9.10
2019-05-16T00:13:28.013Z,9.10
2019-05-16T00:15:55.707Z,9.00
2019-05-16T00:18:23.499Z,8.90
2019-05-16T00:20:51.344Z,8.90
2019-05-16T00:23:19.101Z,8.90
2019-05-16T00:25:47.782Z,8.80
2019-05-16T00:28:17.858Z,8.80
2019-05-16T00:30:45.297Z,8.90
2019-05-16T00:33:13.083Z,8.90
2019-05-16T00:35:40.784Z,8.80
2019-05-16T00:38:08.810Z,8.70
2019-05-16T00:40:38.159Z,8.70
2019-05-16T00:43:08.072Z,8.70
2019-05-16T00:45:38.278Z,8.60
2019-05-16T00:48:05.278Z,8.60
2019-05-16T00:50:33.237Z,8.50
2019-05-16T00:53:00.903Z,8.40
2019-05-16T00:55:29.723Z,8.40
2019-05-16T00:57:58.489Z,8.30
2019-05-16T01:00:45.427Z,8.30
2019-05-16T01:03:15.070Z,8.30
2019-05-16T01:05:43.182Z,8.30
2019-05-16T01:08:11.405Z,8.30
2019-05-16T01:10:39.833Z,8.30
2019-05-16T01:13:08.032Z,8.20
2019-05-16T01:15:37.994Z,8.10
2019-05-16T01:18:08.135Z,8.10
2019-05-16T01:20:35.709Z,8.10
2019-05-16T01:23:03.901Z,8.00
2019-05-16T01:25:32.076Z,8.00
2019-05-16T01:27:59.956Z,8.00
2019-05-16T01:30:28.638Z,7.90
2019-05-16T01:32:58.286Z,7.90
2019-05-16T01:35:27.859Z,7.80
2019-05-16T01:37:57.968Z,7.70
2019-05-16T01:40:27.989Z,7.70
2019-05-16T01:42:55.155Z,7.70
2019-05-16T01:45:22.931Z,7.60
2019-05-16T01:47:50.688Z,7.60
2019-05-16T01:50:18.978Z,7.60
2019-05-16T01:52:48.503Z,7.60
2019-05-16T01:55:18.474Z,7.50
2019-05-16T01:57:47.913Z,7.50
2019-05-16T02:00:16.033Z,7.40
2019-05-16T02:02:44.122Z,7.40
2019-05-16T02:05:14.277Z,7.40
2019-05-16T02:07:42.191Z,7.40
2019-05-16T02:10:10.064Z,7.40
2019-05-16T02:12:38.670Z,7.30
2019-05-16T02:15:07.883Z,7.30
2019-05-16T02:17:38.551Z,7.20
2019-05-16T02:20:08.406Z,7.20
2019-05-16T02:22:36.162Z,7.30
2019-05-16T02:25:04.308Z,7.40
2019-05-16T02:27:33.709Z,7.30
2019-05-16T02:30:01.437Z,7.30
2019-05-16T02:32:33.598Z,7.30
2019-05-16T02:35:02.139Z,7.20
2019-05-16T02:37:34.854Z,7.20
2019-05-16T02:40:01.846Z,7.20
2019-05-16T02:42:31.492Z,7.20
2019-05-16T02:45:02.570Z,7.30
2019-05-16T02:47:34.955Z,7.30
2019-05-16T02:50:03.199Z,7.30
2019-05-16T02:52:31.913Z,7.30
2019-05-16T02:55:00.923Z,7.20
2019-05-16T02:57:31.581Z,7.10
2019-05-16T03:00:01.262Z,7.10
2019-05-16T03:02:31.228Z,7.10
2019-05-16T03:05:00.804Z,7.10
2019-05-16T03:07:37.562Z,7.10
2019-05-16T03:10:01.483Z,7.10
2019-05-16T03:12:31.068Z,7.00
2019-05-16T03:15:02.466Z,7.00
2019-05-16T03:17:33.330Z,7.00
2019-05-16T03:20:02.129Z,6.90
2019-05-16T03:22:31.867Z,6.90
2019-05-16T03:25:01.062Z,6.80
2019-05-16T03:27:30.757Z,6.80
2019-05-16T03:30:01.635Z,6.80
2019-05-16T03:32:33.348Z,6.80
2019-05-16T03:35:04.138Z,6.80
2019-05-16T03:37:30.514Z,6.90
2019-05-16T03:40:00.306Z,6.90
2019-05-16T03:42:26.634Z,6.80
2019-05-16T03:44:54.272Z,6.80
2019-05-16T03:47:25.646Z,6.60
2019-05-16T03:49:53.411Z,6.70
2019-05-16T03:52:21.013Z,6.70
2019-05-16T03:54:50.708Z,6.80
2019-05-16T03:57:21.211Z,6.80
2019-05-16T03:59:47.895Z,6.70
2019-05-16T04:02:15.761Z,6.70
2019-05-16T04:04:43.569Z,6.70
2019-05-16T04:07:11.686Z,6.70
2019-05-16T04:09:41.287Z,6.80
2019-05-16T04:12:10.809Z,6.90
2019-05-16T04:14:40.924Z,7.00
2019-05-16T04:17:10.868Z,6.90
2019-05-16T04:19:37.794Z,7.00
2019-05-16T04:22:10.840Z,7.00
2019-05-16T04:24:41.783Z,7.10
2019-05-16T04:27:11.991Z,7.10
2019-05-16T04:29:40.841Z,7.10
2019-05-16T04:32:11.053Z,7.10
2019-05-16T04:34:41.559Z,7.10
2019-05-16T04:37:11.276Z,7.00
2019-05-16T04:39:37.698Z,7.00
2019-05-16T04:42:05.391Z,7.20
2019-05-16T04:44:33.117Z,7.30
2019-05-16T04:47:01.730Z,7.30
2019-05-16T04:49:31.933Z,7.40
2019-05-16T04:52:00.663Z,7.50
2019-05-16T04:54:30.752Z,7.50
2019-05-16T04:57:01.379Z,7.50
2019-05-16T04:59:31.119Z,7.60
2019-05-16T05:02:01.647Z,7.70
2019-05-16T05:04:30.656Z,7.70
2019-05-16T05:07:00.430Z,7.70
2019-05-16T05:09:27.567Z,7.80
2019-05-16T05:11:55.350Z,7.80
2019-05-16T05:14:23.113Z,7.90
2019-05-16T05:16:50.914Z,8.10
2019-05-16T05:19:20.279Z,8.10
2019-05-16T05:21:51.197Z,8.10
2019-05-16T05:24:19.621Z,8.20
2019-05-16T05:26:47.527Z,8.20
2019-05-16T05:29:15.266Z,8.20
2019-05-16T05:31:45.252Z,8.30
2019-05-16T05:34:12.865Z,8.40
2019-05-16T05:36:40.970Z,8.40
2019-05-16T05:39:13.014Z,8.40
2019-05-16T05:41:40.096Z,8.50
2019-05-16T05:44:10.447Z,8.40
2019-05-16T05:46:39.918Z,8.30
2019-05-16T05:49:07.107Z,8.50
2019-05-16T05:51:34.975Z,8.60
2019-05-16T05:54:02.754Z,8.70
2019-05-16T05:56:30.666Z,8.60
2019-05-16T05:59:01.390Z,8.60
2019-05-16T06:01:31.485Z,8.50
2019-05-16T06:03:59.768Z,8.50
2019-05-16T06:06:30.428Z,8.60
2019-05-16T06:09:00.528Z,8.60
2019-05-16T06:11:30.601Z,8.70
2019-05-16T06:14:00.330Z,8.80
2019-05-16T06:16:30.845Z,8.80
2019-05-16T06:19:00.757Z,8.80
2019-05-16T06:21:33.044Z,8.90
2019-05-16T06:23:59.919Z,9.00
2019-05-16T06:26:30.206Z,9.00
2019-05-16T06:29:00.500Z,8.90
2019-05-16T06:31:31.088Z,8.80
2019-05-16T06:33:57.797Z,8.80
2019-05-16T06:36:25.813Z,8.80
2019-05-16T06:38:53.565Z,8.80
2019-05-16T06:41:21.238Z,8.90
2019-05-16T06:43:50.761Z,9.00
2019-05-16T06:46:20.110Z,9.00
2019-05-16T06:48:50.408Z,9.20
2019-05-16T06:51:19.869Z,9.30
2019-05-16T06:53:49.821Z,9.30
2019-05-16T06:56:16.907Z,9.40
2019-05-16T06:58:48.443Z,9.40
2019-05-16T07:01:14.391Z,9.50
2019-05-16T07:03:42.230Z,9.70
2019-05-16T07:06:26.278Z,9.80
2019-05-16T07:08:40.325Z,10.00
2019-05-16T07:11:10.367Z,10.10
2019-05-16T07:13:40.479Z,10.20
2019-05-16T07:16:09.757Z,10.40
2019-05-16T07:18:39.593Z,10.40
2019-05-16T07:21:07.066Z,10.30
2019-05-16T07:23:35.002Z,10.20
2019-05-16T07:26:02.813Z,10.10
2019-05-16T07:28:30.594Z,10.20
2019-05-16T07:31:00.481Z,10.10
2019-05-16T07:33:27.941Z,10.20
2019-05-16T07:35:55.831Z,10.30
2019-05-16T07:38:23.513Z,10.20
2019-05-16T07:40:51.596Z,10.20
2019-05-16T07:43:20.594Z,10.20
2019-05-16T07:45:51.272Z,10.20
2019-05-16T07:48:21.176Z,10.20
2019-05-16T07:50:50.075Z,10.40
2019-05-16T07:53:17.615Z,10.50
2019-05-16T07:55:45.422Z,10.60
2019-05-16T07:58:13.322Z,10.70
2019-05-16T08:00:52.717Z,10.80
2019-05-16T08:03:10.959Z,10.80
2019-05-16T08:05:41.280Z,10.80
2019-05-16T08:08:10.418Z,10.80
2019-05-16T08:10:46.075Z,11.00
2019-05-16T08:13:10.398Z,10.90
2019-05-16T08:15:40.515Z,11.10
2019-05-16T08:18:07.290Z,11.10
2019-05-16T08:20:35.091Z,11.20
2019-05-16T08:23:02.830Z,11.20
2019-05-16T08:25:31.330Z,11.30
2019-05-16T08:28:01.155Z,11.30
2019-05-16T08:30:31.631Z,11.30
2019-05-16T08:33:02.206Z,11.50
2019-05-16T08:35:31.451Z,11.50
2019-05-16T08:38:01.006Z,11.70
2019-05-16T08:40:31.335Z,11.80
2019-05-16T08:43:00.453Z,11.80
2019-05-16T08:45:31.325Z,11.80
2019-05-16T08:47:59.778Z,11.80
2019-05-16T08:50:27.719Z,11.90
2019-05-16T08:52:55.416Z,11.90
2019-05-16T08:55:23.090Z,12.10
2019-05-16T08:57:52.820Z,12.10
2019-05-16T09:00:22.635Z,12.10
2019-05-16T09:02:52.689Z,12.20
2019-05-16T09:05:22.696Z,12.20
2019-05-16T09:07:50.598Z,12.20
2019-05-16T09:12:48.225Z,12.50
2019-05-16T09:15:17.326Z,12.50
2019-05-16T09:17:47.442Z,12.60
2019-05-16T09:20:17.375Z,12.80
2019-05-16T09:22:47.870Z,13.00
2019-05-16T09:25:18.596Z,13.20
2019-05-16T09:27:47.094Z,13.20
2019-05-16T09:30:17.061Z,13.30
2019-05-16T09:32:47.612Z,13.20
2019-05-16T09:35:17.169Z,13.30
2019-05-16T09:37:47.360Z,13.10
2019-05-16T09:40:17.260Z,13.20
2019-05-16T09:42:47.413Z,13.40
2019-05-16T09:45:17.065Z,13.50
2019-05-16T09:47:48.816Z,13.50
2019-05-16T09:50:17.475Z,13.80
2019-05-16T09:52:47.286Z,14.00
2019-05-16T09:55:17.578Z,14.00
2019-05-16T09:57:46.852Z,14.30
2019-05-16T10:00:17.985Z,14.30
2019-05-16T10:02:47.690Z,14.40
2019-05-16T10:05:16.986Z,14.20
2019-05-16T10:07:47.090Z,14.10
2019-05-16T10:10:17.111Z,14.00
2019-05-16T10:12:45.306Z,14.10
2019-05-16T10:15:13.477Z,14.20
2019-05-16T10:17:42.787Z,14.30
2019-05-16T10:20:11.671Z,14.30
2019-05-16T10:22:39.669Z,14.20
2019-05-16T10:25:08.122Z,14.20
2019-05-16T10:27:37.041Z,14.20
2019-05-16T10:30:08.310Z,14.40
2019-05-16T10:32:39.526Z,14.40
2019-05-16T10:35:06.340Z,14.40
2019-05-16T10:37:37.394Z,14.50
2019-05-16T10:40:07.281Z,14.60
2019-05-16T10:42:37.951Z,14.70
2019-05-16T10:45:08.750Z,15.00
2019-05-16T10:47:37.161Z,15.20
2019-05-16T10:50:06.917Z,15.20
2019-05-16T10:52:36.731Z,15.30
2019-05-16T10:55:04.840Z,15.30
2019-05-16T10:57:34.060Z,15.30
2019-05-16T11:00:12.473Z,15.30
2019-05-16T11:02:33.148Z,15.40
2019-05-16T11:05:21.743Z,15.60
2019-05-16T11:07:31.605Z,15.60
2019-05-16T11:10:03.489Z,15.60
2019-05-16T11:12:45.819Z,15.60
2019-05-16T11:15:00.832Z,15.60
2019-05-16T11:17:30.206Z,15.60
2019-05-16T11:19:57.950Z,15.70
2019-05-16T11:22:29.599Z,15.50
2019-05-16T11:24:56.635Z,15.50
2019-05-16T11:27:24.402Z,15.50
2019-05-16T11:29:52.173Z,15.60
2019-05-16T11:32:19.915Z,15.60
2019-05-16T11:34:48.084Z,15.50
2019-05-16T11:37:17.694Z,15.30
2019-05-16T11:39:46.598Z,15.20
2019-05-16T11:42:17.333Z,15.30
2019-05-16T11:44:47.582Z,15.30
2019-05-16T11:47:13.736Z,15.40
2019-05-16T11:49:41.591Z,15.40
2019-05-16T11:52:09.338Z,15.40
2019-05-16T11:54:37.567Z,15.40
2019-05-16T11:57:06.970Z,15.50
2019-05-16T11:59:37.249Z,15.50
2019-05-16T12:02:04.853Z,15.40
2019-05-16T12:04:32.698Z,15.50
2019-05-16T12:07:00.542Z,15.50
2019-05-16T12:09:33.886Z,15.40
2019-05-16T12:12:03.881Z,15.60
2019-05-16T12:14:28.173Z,15.80
2019-05-16T12:16:56.937Z,15.90
2019-05-16T12:19:33.405Z,16.20
2019-05-16T12:21:56.959Z,16.20
2019-05-16T12:24:36.083Z,16.40
2019-05-16T12:26:53.726Z,16.60
2019-05-16T12:29:21.646Z,16.90
2019-05-16T12:31:57.831Z,17.10
2019-05-16T12:34:19.212Z,17.30
2019-05-16T12:36:47.324Z,17.60
2019-05-16T12:39:17.237Z,17.40
2019-05-16T12:41:48.850Z,17.40
2019-05-16T12:44:16.157Z,17.40
2019-05-16T12:46:44.013Z,17.40
2019-05-16T12:49:11.813Z,17.40
2019-05-16T12:51:39.547Z,17.30
2019-05-16T12:54:07.661Z,17.00
2019-05-16T12:56:37.766Z,16.70
2019-05-16T12:59:05.116Z,16.70
2019-05-16T13:01:34.359Z,16.70
2019-05-16T13:04:02.664Z,16.60
2019-05-16T13:06:30.507Z,16.70
2019-05-16T13:08:58.327Z,16.80
2019-05-16T13:11:27.029Z,16.80
2019-05-16T13:14:03.516Z,17.00
2019-05-16T13:16:24.649Z,17.10
2019-05-16T13:18:52.458Z,17.20
2019-05-16T13:21:22.849Z,17.20
2019-05-16T13:23:50.111Z,17.30
2019-05-16T13:26:17.838Z,17.60
2019-05-16T13:28:47.541Z,17.80
2019-05-16T13:31:17.123Z,18.00
2019-05-16T13:33:45.233Z,18.20
2019-05-16T13:36:12.920Z,18.40
2019-05-16T13:38:40.833Z,18.40
2019-05-16T13:41:08.538Z,18.50
2019-05-16T13:43:37.547Z,18.40
2019-05-16T13:46:07.093Z,18.30
2019-05-16T13:48:37.423Z,18.30
2019-05-16T13:51:14.464Z,18.50
2019-05-16T13:53:36.919Z,18.50
2019-05-16T13:56:07.129Z,18.40
2019-05-16T13:58:37.096Z,18.50
2019-05-16T14:01:04.107Z,18.40
2019-05-16T14:03:31.928Z,18.30
2019-05-16T14:06:02.452Z,18.40
2019-05-16T14:08:30.214Z,18.60
2019-05-16T14:11:01.797Z,18.50
2019-05-16T14:13:28.291Z,18.50
2019-05-16T14:15:56.136Z,18.30
2019-05-16T14:18:23.934Z,18.20
2019-05-16T14:20:51.783Z,18.10
2019-05-16T14:23:19.669Z,18.20
2019-05-16T14:25:48.314Z,18.30
2019-05-16T14:28:17.245Z,18.40
2019-05-16T14:30:46.765Z,18.40
2019-05-16T14:33:16.966Z,18.40
2019-05-16T14:35:47.006Z,18.10
2019-05-16T14:38:14.008Z,18.00
2019-05-16T14:40:42.356Z,17.90
2019-05-16T14:43:10.138Z,17.90
2019-05-16T14:45:37.941Z,17.80
2019-05-16T14:48:07.534Z,17.90
2019-05-16T14:50:37.505Z,17.90
2019-05-16T14:53:07.253Z,17.80
2019-05-16T14:55:37.801Z,17.90
2019-05-16T14:58:04.325Z,17.90
2019-05-16T15:00:32.026Z,17.90
2019-05-16T15:03:00.020Z,17.90
2019-05-16T15:05:28.357Z,17.90
2019-05-16T15:07:56.915Z,17.90
2019-05-16T15:10:26.905Z,17.90
2019-05-16T15:12:56.922Z,17.90
2019-05-16T15:15:27.449Z,17.90
2019-05-16T15:17:56.670Z,17.70
2019-05-16T15:20:23.667Z,17.60
2019-05-16T15:22:51.634Z,17.60
2019-05-16T15:25:19.374Z,17.70
2019-05-16T15:27:47.872Z,17.70
2019-05-16T15:30:17.209Z,17.70
2019-05-16T15:32:48.106Z,17.80
2019-05-16T15:35:18.007Z,17.70
2019-05-16T15:37:48.403Z,17.70
2019-05-16T15:40:17.719Z,17.90
2019-05-16T15:42:46.169Z,17.90
2019-05-16T15:45:14.670Z,17.90
2019-05-16T15:47:43.167Z,17.80
2019-05-16T15:50:13.449Z,17.70
2019-05-16T15:52:43.436Z,17.70
2019-05-16T15:55:11.276Z,17.70
2019-05-16T15:57:39.455Z,17.70
2019-05-16T16:00:10.572Z,17.70
2019-05-16T16:02:38.218Z,17.70
2019-05-16T16:05:07.953Z,17.80
2019-05-16T16:07:37.997Z,17.70
2019-05-16T16:10:07.214Z,17.70
2019-05-16T16:12:37.530Z,17.50
2019-05-16T16:15:07.583Z,17.40
2019-05-16T16:17:38.046Z,17.30
2019-05-16T16:20:09.947Z,17.20
2019-05-16T16:22:37.732Z,17.20
2019-05-16T16:25:06.819Z,17.10
2019-05-16T16:27:35.043Z,17.10
2019-05-16T16:30:03.780Z,17.00
2019-05-16T16:32:32.642Z,16.90
2019-05-16T16:35:00.605Z,16.90
2019-05-16T16:37:28.409Z,17.00
2019-05-16T16:39:57.627Z,17.00
2019-05-16T16:42:27.247Z,16.90
2019-05-16T16:44:56.588Z,17.00
2019-05-16T16:47:26.789Z,16.90
2019-05-16T16:49:54.251Z,16.80
2019-05-16T16:52:22.446Z,16.70
2019-05-16T16:54:50.280Z,16.80
2019-05-16T16:57:18.134Z,16.60
2019-05-16T16:59:47.607Z,16.60
2019-05-16T17:02:17.144Z,16.60
2019-05-16T17:04:50.309Z,16.70
2019-05-16T17:07:16.762Z,16.80
2019-05-16T17:09:47.000Z,16.80
2019-05-16T17:12:14.449Z,16.80
2019-05-16T17:14:42.266Z,16.80
2019-05-16T17:17:10.074Z,16.80
2019-05-16T17:19:37.926Z,16.80
2019-05-16T17:22:14.579Z,16.90
2019-05-16T17:24:36.583Z,16.80
2019-05-16T17:27:07.565Z,16.80
2019-05-16T17:29:36.741Z,16.90
2019-05-16T17:32:09.932Z,16.80
2019-05-16T17:34:37.280Z,16.80
2019-05-16T17:37:09.165Z,16.80
2019-05-16T17:39:36.854Z,16.70
2019-05-16T17:42:07.477Z,16.70
2019-05-16T17:44:36.413Z,16.60
2019-05-16T17:47:06.881Z,16.60
2019-05-16T17:49:34.115Z,16.60
2019-05-16T17:52:02.091Z,16.60
2019-05-16T17:54:30.031Z,16.60
2019-05-16T17:56:57.845Z,16.60
2019-05-16T17:59:27.564Z,16.50
2019-05-16T18:01:56.922Z,16.40
2019-05-16T18:04:26.698Z,16.30
2019-05-16T18:06:57.527Z,16.30
2019-05-16T18:09:24.289Z,16.30
2019-05-16T18:11:52.329Z,16.20
2019-05-16T18:14:20.106Z,16.20
2019-05-16T18:16:53.510Z,16.20
2019-05-16T18:19:17.536Z,16.10
2019-05-16T18:21:46.441Z,16.10
2019-05-16T18:24:16.538Z,16.10
2019-05-16T18:26:44.155Z,16.00
2019-05-16T18:29:11.938Z,16.00
2019-05-16T18:31:39.972Z,16.00
2019-05-16T18:34:07.848Z,16.10
2019-05-16T18:36:35.636Z,16.20
2019-05-16T18:39:08.088Z,16.20
2019-05-16T18:41:36.616Z,16.20
2019-05-16T18:44:05.307Z,16.20
2019-05-16T18:46:33.277Z,16.20
2019-05-16T18:49:01.100Z,16.20
2019-05-16T18:51:28.866Z,16.20
2019-05-16T18:53:57.095Z,16.20
2019-05-16T18:56:27.031Z,16.20
2019-05-16T18:58:57.087Z,16.20
2019-05-16T19:01:26.737Z,16.20
2019-05-16T19:03:54.107Z,16.20
2019-05-16T19:06:21.963Z,16.20
2019-05-16T19:08:49.747Z,16.10
2019-05-16T19:11:17.629Z,16.00
2019-05-16T19:13:47.501Z,16.00
2019-05-16T19:16:16.983Z,16.00
2019-05-16T19:18:44.807Z,16.00
2019-05-16T19:21:12.651Z,16.00
2019-05-16T19:23:40.831Z,15.80
2019-05-16T19:26:08.767Z,15.80
2019-05-16T19:28:37.376Z,15.80
2019-05-16T19:31:06.591Z,15.70
2019-05-16T19:33:34.618Z,15.70
2019-05-16T19:36:02.636Z,15.80
2019-05-16T19:38:30.829Z,15.80
2019-05-16T19:40:58.628Z,15.80
2019-05-16T19:43:26.570Z,15.80
2019-05-16T19:45:57.067Z,15.90
2019-05-16T19:48:26.513Z,15.80
2019-05-16T19:50:56.672Z,15.80
2019-05-16T19:53:23.831Z,15.70
2019-05-16T19:55:51.855Z,15.60
2019-05-16T19:58:19.576Z,15.60
2019-05-16T20:00:47.426Z,15.60
2019-05-16T20:03:16.677Z,15.60
2019-05-16T20:05:47.443Z,15.60
2019-05-16T20:08:17.342Z,15.60
2019-05-16T20:10:44.948Z,15.70
2019-05-16T20:13:12.882Z,15.60
2019-05-16T20:15:41.729Z,15.60
2019-05-16T20:18:09.624Z,15.60
2019-05-16T20:20:37.576Z,15.60
2019-05-16T20:23:06.341Z,15.50
2019-05-16T20:25:36.273Z,15.10
2019-05-16T20:28:03.964Z,15.00
2019-05-16T20:30:31.766Z,14.80
2019-05-16T20:32:59.572Z,14.50
2019-05-16T20:35:27.196Z,14.30
2019-05-16T20:37:55.053Z,14.20
2019-05-16T20:40:22.892Z,14.10
2019-05-16T20:42:50.735Z,13.90
2019-05-16T20:45:18.506Z,13.80
2019-05-16T20:47:46.399Z,13.70
2019-05-16T20:50:16.825Z,13.70
2019-05-16T20:52:46.650Z,13.70
2019-05-16T20:55:14.178Z,13.60
2019-05-16T20:57:42.091Z,13.50
2019-05-16T21:00:10.834Z,13.40
2019-05-16T21:02:38.934Z,13.30
2019-05-16T21:05:07.165Z,13.30
2019-05-16T21:07:37.441Z,13.30
2019-05-16T21:10:07.935Z,13.30
2019-05-16T21:12:37.300Z,13.30
2019-05-16T21:15:06.899Z,13.40
2019-05-16T21:17:35.207Z,13.30
2019-05-16T21:20:04.146Z,13.30
2019-05-16T21:22:32.469Z,13.30
2019-05-16T21:25:00.795Z,13.30
2019-05-16T21:27:28.982Z,13.30
2019-05-16T21:29:56.765Z,13.30
2019-05-16T21:32:26.854Z,13.20
2019-05-16T21:34:56.398Z,13.30
2019-05-16T21:37:23.940Z,13.20
2019-05-16T21:39:51.773Z,13.20
2019-05-16T21:42:19.574Z,13.20
2019-05-16T21:44:47.271Z,13.20
2019-05-16T21:47:16.868Z,13.30
2019-05-16T21:49:44.658Z,13.20
2019-05-16T21:52:12.386Z,13.20
2019-05-16T21:54:40.402Z,13.20
2019-05-16T21:57:08.081Z,13.20
2019-05-16T21:59:37.581Z,13.20
2019-05-16T22:02:05.559Z,13.10
2019-05-16T22:04:33.506Z,13.00
2019-05-16T22:07:01.214Z,13.00
2019-05-16T22:09:29.202Z,13.00
2019-05-16T22:11:57.403Z,12.90
2019-05-16T22:14:31.756Z,12.90
2019-05-16T22:17:01.032Z,12.80
2019-05-16T22:19:28.823Z,12.80
2019-05-16T22:21:58.474Z,12.70
2019-05-16T22:24:26.540Z,12.60
2019-05-16T22:26:54.541Z,12.50
2019-05-16T22:29:22.330Z,12.60
2019-05-16T22:31:50.098Z,12.50
2019-05-16T22:34:17.854Z,12.50
2019-05-16T22:36:46.236Z,12.40
2019-05-16T22:39:17.196Z,12.30
2019-05-16T22:41:46.606Z,12.30
2019-05-16T22:44:14.523Z,12.30
2019-05-16T22:46:42.279Z,12.30
2019-05-16T22:49:09.980Z,12.30
2019-05-16T22:51:37.854Z,12.30
2019-05-16T22:54:07.687Z,12.30
2019-05-16T22:56:37.434Z,12.20
2019-05-16T22:59:07.059Z,12.20
2019-05-16T23:01:34.514Z,12.10
2019-05-16T23:04:02.221Z,12.10
2019-05-16T23:06:30.276Z,12.10
2019-05-16T23:08:57.937Z,12.10
2019-05-16T23:11:27.004Z,12.10
2019-05-16T23:13:56.848Z,12.10
2019-05-16T23:16:26.674Z,12.10
2019-05-16T23:18:54.263Z,12.00
2019-05-16T23:21:21.993Z,12.00
2019-05-16T23:23:49.737Z,12.00
2019-05-16T23:26:17.426Z,12.00
2019-05-16T23:28:50.950Z,12.00
2019-05-16T23:31:18.735Z,11.90
2019-05-16T23:33:47.062Z,11.90
2019-05-16T23:36:17.254Z,11.80
2019-05-16T23:38:47.261Z,11.80
2019-05-16T23:41:17.082Z,11.80
2019-05-16T23:43:44.361Z,11.70
2019-05-16T23:46:12.133Z,11.70
2019-05-16T23:48:39.972Z,11.70
2019-05-16T23:51:07.977Z,11.70
2019-05-16T23:53:37.126Z,11.70
2019-05-16T23:56:07.181Z,11.70
2019-05-16T23:58:36.770Z,11.70
